sensor_id;sensor_type;location;lat;lon;timestamp;temperature;humidity
67868;SHT31;54672;46.096;14.470;2022-07-03T00:01:00;19.42;76.89
67868;SHT31;54672;46.096;14.470;2022-07-03T00:03:26;19.58;76.36
67868;SHT31;54672;46.096;14.470;2022-07-03T00:05:51;19.46;76.81
67868;SHT31;54672;46.096;14.470;2022-07-03T00:08:17;19.33;77.21
67868;SHT31;54672;46.096;14.470;2022-07-03T00:10:43;19.36;77.20
67868;SHT31;54672;46.096;14.470;2022-07-03T00:13:08;19.36;77.08
67868;SHT31;54672;46.096;14.470;2022-07-03T00:15:33;19.43;76.83
67868;SHT31;54672;46.096;14.470;2022-07-03T00:17:59;19.49;76.67
67868;SHT31;54672;46.096;14.470;2022-07-03T00:20:28;19.58;76.70
67868;SHT31;54672;46.096;14.470;2022-07-03T00:22:56;19.53;76.61
67868;SHT31;54672;46.096;14.470;2022-07-03T00:25:23;19.55;76.60
67868;SHT31;54672;46.096;14.470;2022-07-03T00:27:49;19.63;76.52
67868;SHT31;54672;46.096;14.470;2022-07-03T00:30:15;19.66;76.45
67868;SHT31;54672;46.096;14.470;2022-07-03T00:32:41;19.55;76.63
67868;SHT31;54672;46.096;14.470;2022-07-03T00:35:08;19.49;77.12
67868;SHT31;54672;46.096;14.470;2022-07-03T00:37:34;19.38;77.49
67868;SHT31;54672;46.096;14.470;2022-07-03T00:39:59;19.32;78.02
67868;SHT31;54672;46.096;14.470;2022-07-03T00:42:27;19.28;78.04
67868;SHT31;54672;46.096;14.470;2022-07-03T00:44:54;19.18;78.08
67868;SHT31;54672;46.096;14.470;2022-07-03T00:47:24;19.10;78.46
67868;SHT31;54672;46.096;14.470;2022-07-03T00:49:52;19.05;79.05
67868;SHT31;54672;46.096;14.470;2022-07-03T00:52:19;18.95;79.17
67868;SHT31;54672;46.096;14.470;2022-07-03T00:54:52;18.88;79.60
67868;SHT31;54672;46.096;14.470;2022-07-03T00:57:19;18.84;79.73
67868;SHT31;54672;46.096;14.470;2022-07-03T00:59:44;18.78;80.00
67868;SHT31;54672;46.096;14.470;2022-07-03T01:05:11;18.65;80.81
67868;SHT31;54672;46.096;14.470;2022-07-03T01:10:19;18.60;81.25
67868;SHT31;54672;46.096;14.470;2022-07-03T01:12:54;18.53;81.39
67868;SHT31;54672;46.096;14.470;2022-07-03T01:15:37;18.49;81.87
67868;SHT31;54672;46.096;14.470;2022-07-03T01:18:15;18.40;81.84
67868;SHT31;54672;46.096;14.470;2022-07-03T01:20:48;18.37;82.04
67868;SHT31;54672;46.096;14.470;2022-07-03T01:23:31;18.29;82.38
67868;SHT31;54672;46.096;14.470;2022-07-03T01:26:03;18.28;82.82
67868;SHT31;54672;46.096;14.470;2022-07-03T01:28:32;18.23;83.08
67868;SHT31;54672;46.096;14.470;2022-07-03T01:31:01;18.19;83.20
67868;SHT31;54672;46.096;14.470;2022-07-03T01:33:31;18.09;83.39
67868;SHT31;54672;46.096;14.470;2022-07-03T01:38:28;18.05;84.02
67868;SHT31;54672;46.096;14.470;2022-07-03T01:40:55;18.02;84.06
67868;SHT31;54672;46.096;14.470;2022-07-03T01:43:25;17.98;84.18
67868;SHT31;54672;46.096;14.470;2022-07-03T01:45:53;17.92;84.36
67868;SHT31;54672;46.096;14.470;2022-07-03T01:48:19;17.88;84.57
67868;SHT31;54672;46.096;14.470;2022-07-03T01:50:46;17.96;83.90
67868;SHT31;54672;46.096;14.470;2022-07-03T01:53:12;17.91;84.15
67868;SHT31;54672;46.096;14.470;2022-07-03T01:55:40;17.91;84.42
67868;SHT31;54672;46.096;14.470;2022-07-03T01:58:07;17.82;84.91
67868;SHT31;54672;46.096;14.470;2022-07-03T02:00:49;17.82;84.74
67868;SHT31;54672;46.096;14.470;2022-07-03T02:03:21;17.75;85.08
67868;SHT31;54672;46.096;14.470;2022-07-03T02:05:49;17.74;84.91
67868;SHT31;54672;46.096;14.470;2022-07-03T02:11:19;17.64;85.33
67868;SHT31;54672;46.096;14.470;2022-07-03T02:13:39;17.60;85.23
67868;SHT31;54672;46.096;14.470;2022-07-03T02:16:07;17.58;85.29
67868;SHT31;54672;46.096;14.470;2022-07-03T02:18:33;17.54;85.47
67868;SHT31;54672;46.096;14.470;2022-07-03T02:23:25;17.64;85.54
67868;SHT31;54672;46.096;14.470;2022-07-03T02:25:55;17.58;85.83
67868;SHT31;54672;46.096;14.470;2022-07-03T02:28:25;17.54;86.15
67868;SHT31;54672;46.096;14.470;2022-07-03T02:30:55;17.40;86.65
67868;SHT31;54672;46.096;14.470;2022-07-03T02:33:27;17.30;87.08
67868;SHT31;54672;46.096;14.470;2022-07-03T02:35:54;17.27;86.84
67868;SHT31;54672;46.096;14.470;2022-07-03T02:38:19;17.31;87.13
67868;SHT31;54672;46.096;14.470;2022-07-03T02:54:51;16.77;89.18
67868;SHT31;54672;46.096;14.470;2022-07-03T02:57:17;16.76;89.15
67868;SHT31;54672;46.096;14.470;2022-07-03T02:59:57;16.86;88.90
67868;SHT31;54672;46.096;14.470;2022-07-03T03:02:36;16.97;88.53
67868;SHT31;54672;46.096;14.470;2022-07-03T03:07:32;17.16;87.78
67868;SHT31;54672;46.096;14.470;2022-07-03T03:09:58;17.22;87.50
67868;SHT31;54672;46.096;14.470;2022-07-03T03:12:29;17.19;87.28
67868;SHT31;54672;46.096;14.470;2022-07-03T03:14:58;17.10;87.33
67868;SHT31;54672;46.096;14.470;2022-07-03T03:17:25;17.07;87.68
67868;SHT31;54672;46.096;14.470;2022-07-03T03:19:55;17.07;87.90
67868;SHT31;54672;46.096;14.470;2022-07-03T03:25:03;17.07;87.76
67868;SHT31;54672;46.096;14.470;2022-07-03T03:27:28;17.12;87.64
67868;SHT31;54672;46.096;14.470;2022-07-03T03:29:54;17.22;87.63
67868;SHT31;54672;46.096;14.470;2022-07-03T03:32:19;17.43;87.21
67868;SHT31;54672;46.096;14.470;2022-07-03T03:34:45;17.77;86.14
67868;SHT31;54672;46.096;14.470;2022-07-03T03:37:10;18.22;84.17
67868;SHT31;54672;46.096;14.470;2022-07-03T03:39:36;18.64;82.51
67868;SHT31;54672;46.096;14.470;2022-07-03T03:42:01;19.00;81.13
67868;SHT31;54672;46.096;14.470;2022-07-03T03:44:28;19.33;79.77
67868;SHT31;54672;46.096;14.470;2022-07-03T03:46:54;19.79;77.96
67868;SHT31;54672;46.096;14.470;2022-07-03T03:49:19;19.35;78.51
67868;SHT31;54672;46.096;14.470;2022-07-03T03:51:45;18.91;80.04
67868;SHT31;54672;46.096;14.470;2022-07-03T03:54:10;18.50;81.09
67868;SHT31;54672;46.096;14.470;2022-07-03T03:56:35;18.63;81.03
67868;SHT31;54672;46.096;14.470;2022-07-03T03:59:01;18.65;81.03
67868;SHT31;54672;46.096;14.470;2022-07-03T04:01:26;18.67;80.99
67868;SHT31;54672;46.096;14.470;2022-07-03T04:03:51;18.81;80.66
67868;SHT31;54672;46.096;14.470;2022-07-03T04:06:18;19.21;79.27
67868;SHT31;54672;46.096;14.470;2022-07-03T04:08:44;19.49;78.00
67868;SHT31;54672;46.096;14.470;2022-07-03T04:11:09;19.10;79.42
67868;SHT31;54672;46.096;14.470;2022-07-03T04:13:34;19.08;79.78
67868;SHT31;54672;46.096;14.470;2022-07-03T04:16:00;19.39;78.58
67868;SHT31;54672;46.096;14.470;2022-07-03T04:18:25;19.53;77.79
67868;SHT31;54672;46.096;14.470;2022-07-03T04:20:50;19.74;77.15
67868;SHT31;54672;46.096;14.470;2022-07-03T04:23:16;20.72;74.15
67868;SHT31;54672;46.096;14.470;2022-07-03T04:25:41;22.01;70.33
67868;SHT31;54672;46.096;14.470;2022-07-03T04:28:07;23.11;66.71
67868;SHT31;54672;46.096;14.470;2022-07-03T04:30:32;23.86;63.81
67868;SHT31;54672;46.096;14.470;2022-07-03T04:32:57;24.51;61.48
67868;SHT31;54672;46.096;14.470;2022-07-03T04:35:22;24.95;59.54
67868;SHT31;54672;46.096;14.470;2022-07-03T04:37:48;25.22;59.15
67868;SHT31;54672;46.096;14.470;2022-07-03T04:40:13;24.56;60.68
67868;SHT31;54672;46.096;14.470;2022-07-03T04:42:39;24.78;60.21
67868;SHT31;54672;46.096;14.470;2022-07-03T04:45:04;25.25;58.90
67868;SHT31;54672;46.096;14.470;2022-07-03T04:47:30;25.63;57.49
67868;SHT31;54672;46.096;14.470;2022-07-03T04:49:55;25.69;56.91
67868;SHT31;54672;46.096;14.470;2022-07-03T04:52:20;25.47;57.92
67868;SHT31;54672;46.096;14.470;2022-07-03T04:54:46;26.21;56.41
67868;SHT31;54672;46.096;14.470;2022-07-03T04:57:11;26.45;55.48
67868;SHT31;54672;46.096;14.470;2022-07-03T04:59:37;26.00;57.06
67868;SHT31;54672;46.096;14.470;2022-07-03T05:02:02;25.02;59.01
67868;SHT31;54672;46.096;14.470;2022-07-03T05:04:27;22.87;65.15
67868;SHT31;54672;46.096;14.470;2022-07-03T05:06:53;22.31;67.78
67868;SHT31;54672;46.096;14.470;2022-07-03T05:09:18;22.89;66.40
67868;SHT31;54672;46.096;14.470;2022-07-03T05:11:44;23.01;65.83
67868;SHT31;54672;46.096;14.470;2022-07-03T05:14:09;23.82;63.46
67868;SHT31;54672;46.096;14.470;2022-07-03T05:16:34;25.08;60.44
67868;SHT31;54672;46.096;14.470;2022-07-03T05:19:00;25.86;57.60
67868;SHT31;54672;46.096;14.470;2022-07-03T05:21:26;24.47;60.59
67868;SHT31;54672;46.096;14.470;2022-07-03T05:23:51;25.39;58.77
67868;SHT31;54672;46.096;14.470;2022-07-03T05:26:16;24.72;60.54
67868;SHT31;54672;46.096;14.470;2022-07-03T05:28:42;25.53;58.59
67868;SHT31;54672;46.096;14.470;2022-07-03T05:31:07;26.63;55.56
67868;SHT31;54672;46.096;14.470;2022-07-03T05:33:33;26.97;54.83
67868;SHT31;54672;46.096;14.470;2022-07-03T05:35:58;27.54;52.90
67868;SHT31;54672;46.096;14.470;2022-07-03T05:38:24;27.44;53.45
67868;SHT31;54672;46.096;14.470;2022-07-03T05:41:07;27.04;54.67
67868;SHT31;54672;46.096;14.470;2022-07-03T05:43:33;27.67;52.93
67868;SHT31;54672;46.096;14.470;2022-07-03T05:45:58;25.65;57.48
67868;SHT31;54672;46.096;14.470;2022-07-03T05:48:24;25.07;60.00
67868;SHT31;54672;46.096;14.470;2022-07-03T05:50:49;25.77;57.58
67868;SHT31;54672;46.096;14.470;2022-07-03T05:53:14;25.54;57.73
67868;SHT31;54672;46.096;14.470;2022-07-03T05:55:40;26.83;54.66
67868;SHT31;54672;46.096;14.470;2022-07-03T05:58:05;27.22;53.73
67868;SHT31;54672;46.096;14.470;2022-07-03T06:00:30;28.64;51.29
67868;SHT31;54672;46.096;14.470;2022-07-03T06:02:56;30.44;46.04
67868;SHT31;54672;46.096;14.470;2022-07-03T06:05:21;29.82;46.87
67868;SHT31;54672;46.096;14.470;2022-07-03T06:07:46;27.74;52.44
67868;SHT31;54672;46.096;14.470;2022-07-03T06:10:12;28.08;50.83
67868;SHT31;54672;46.096;14.470;2022-07-03T06:12:37;27.85;51.84
67868;SHT31;54672;46.096;14.470;2022-07-03T06:15:02;26.62;54.53
67868;SHT31;54672;46.096;14.470;2022-07-03T06:17:28;27.34;52.13
67868;SHT31;54672;46.096;14.470;2022-07-03T06:19:53;26.58;54.02
67868;SHT31;54672;46.096;14.470;2022-07-03T06:22:18;27.81;51.76
67868;SHT31;54672;46.096;14.470;2022-07-03T06:24:44;28.29;50.93
67868;SHT31;54672;46.096;14.470;2022-07-03T06:27:09;29.63;48.54
67868;SHT31;54672;46.096;14.470;2022-07-03T06:29:34;31.54;43.21
67868;SHT31;54672;46.096;14.470;2022-07-03T06:32:00;30.12;45.95
67868;SHT31;54672;46.096;14.470;2022-07-03T06:34:25;29.59;47.29
67868;SHT31;54672;46.096;14.470;2022-07-03T06:36:50;30.55;44.95
67868;SHT31;54672;46.096;14.470;2022-07-03T06:39:16;31.51;43.80
67868;SHT31;54672;46.096;14.470;2022-07-03T06:41:41;32.61;41.81
67868;SHT31;54672;46.096;14.470;2022-07-03T06:44:06;33.37;39.97
67868;SHT31;54672;46.096;14.470;2022-07-03T06:46:31;32.48;40.78
67868;SHT31;54672;46.096;14.470;2022-07-03T06:48:57;31.67;42.77
67868;SHT31;54672;46.096;14.470;2022-07-03T06:51:22;33.62;39.39
67868;SHT31;54672;46.096;14.470;2022-07-03T06:53:47;34.23;37.58
67868;SHT31;54672;46.096;14.470;2022-07-03T06:56:13;34.63;37.33
67868;SHT31;54672;46.096;14.470;2022-07-03T06:58:38;34.96;37.01
67868;SHT31;54672;46.096;14.470;2022-07-03T07:01:03;34.94;36.56
67868;SHT31;54672;46.096;14.470;2022-07-03T07:03:29;34.46;37.44
67868;SHT31;54672;46.096;14.470;2022-07-03T07:05:54;34.59;36.97
67868;SHT31;54672;46.096;14.470;2022-07-03T07:08:20;34.80;36.82
67868;SHT31;54672;46.096;14.470;2022-07-03T07:10:45;33.03;39.39
67868;SHT31;54672;46.096;14.470;2022-07-03T07:13:10;33.89;37.39
67868;SHT31;54672;46.096;14.470;2022-07-03T07:15:36;34.39;37.00
67868;SHT31;54672;46.096;14.470;2022-07-03T07:18:01;35.15;35.23
67868;SHT31;54672;46.096;14.470;2022-07-03T07:20:26;35.45;35.89
67868;SHT31;54672;46.096;14.470;2022-07-03T07:22:51;32.46;40.66
67868;SHT31;54672;46.096;14.470;2022-07-03T07:25:17;34.39;37.88
67868;SHT31;54672;46.096;14.470;2022-07-03T07:27:42;33.04;38.61
67868;SHT31;54672;46.096;14.470;2022-07-03T07:30:08;30.24;43.26
67868;SHT31;54672;46.096;14.470;2022-07-03T07:32:33;32.75;37.98
67868;SHT31;54672;46.096;14.470;2022-07-03T07:34:58;29.87;42.88
67868;SHT31;54672;46.096;14.470;2022-07-03T07:37:24;30.12;43.09
67868;SHT31;54672;46.096;14.470;2022-07-03T07:39:49;32.24;39.64
67868;SHT31;54672;46.096;14.470;2022-07-03T07:42:14;31.85;38.80
67868;SHT31;54672;46.096;14.470;2022-07-03T07:44:41;33.03;37.48
67868;SHT31;54672;46.096;14.470;2022-07-03T07:47:06;33.03;37.09
67868;SHT31;54672;46.096;14.470;2022-07-03T07:49:32;33.51;35.65
67868;SHT31;54672;46.096;14.470;2022-07-03T07:51:57;34.08;34.38
67868;SHT31;54672;46.096;14.470;2022-07-03T07:54:22;34.09;33.71
67868;SHT31;54672;46.096;14.470;2022-07-03T07:56:48;33.84;33.14
67868;SHT31;54672;46.096;14.470;2022-07-03T07:59:13;33.89;33.79
67868;SHT31;54672;46.096;14.470;2022-07-03T08:01:38;33.60;33.28
67868;SHT31;54672;46.096;14.470;2022-07-03T08:04:22;31.66;36.78
67868;SHT31;54672;46.096;14.470;2022-07-03T08:07:06;32.87;35.19
67868;SHT31;54672;46.096;14.470;2022-07-03T08:09:32;33.04;34.40
67868;SHT31;54672;46.096;14.470;2022-07-03T08:11:57;33.77;34.26
67868;SHT31;54672;46.096;14.470;2022-07-03T08:14:22;34.01;33.11
67868;SHT31;54672;46.096;14.470;2022-07-03T08:16:48;34.40;33.50
67868;SHT31;54672;46.096;14.470;2022-07-03T08:19:14;34.77;32.62
67868;SHT31;54672;46.096;14.470;2022-07-03T08:21:40;34.11;31.05
67868;SHT31;54672;46.096;14.470;2022-07-03T08:24:05;33.20;33.11
67868;SHT31;54672;46.096;14.470;2022-07-03T08:26:30;32.51;34.36
67868;SHT31;54672;46.096;14.470;2022-07-03T08:28:56;32.51;35.61
67868;SHT31;54672;46.096;14.470;2022-07-03T08:31:21;32.52;34.68
67868;SHT31;54672;46.096;14.470;2022-07-03T08:33:46;32.28;35.29
67868;SHT31;54672;46.096;14.470;2022-07-03T08:36:12;32.05;35.14
67868;SHT31;54672;46.096;14.470;2022-07-03T08:38:37;32.14;35.22
67868;SHT31;54672;46.096;14.470;2022-07-03T08:41:03;32.48;34.38
67868;SHT31;54672;46.096;14.470;2022-07-03T08:43:28;32.58;34.39
67868;SHT31;54672;46.096;14.470;2022-07-03T08:45:54;32.10;35.44
67868;SHT31;54672;46.096;14.470;2022-07-03T08:48:20;31.97;37.34
67868;SHT31;54672;46.096;14.470;2022-07-03T08:50:46;30.81;37.25
67868;SHT31;54672;46.096;14.470;2022-07-03T08:53:12;31.09;37.33
67868;SHT31;54672;46.096;14.470;2022-07-03T08:55:37;31.57;37.08
67868;SHT31;54672;46.096;14.470;2022-07-03T08:58:03;31.12;37.04
67868;SHT31;54672;46.096;14.470;2022-07-03T09:00:29;30.82;37.16
67868;SHT31;54672;46.096;14.470;2022-07-03T09:02:54;30.34;38.31
67868;SHT31;54672;46.096;14.470;2022-07-03T09:05:21;30.23;38.35
67868;SHT31;54672;46.096;14.470;2022-07-03T09:07:47;31.12;37.27
67868;SHT31;54672;46.096;14.470;2022-07-03T09:10:14;32.07;37.00
67868;SHT31;54672;46.096;14.470;2022-07-03T09:12:40;32.83;34.57
67868;SHT31;54672;46.096;14.470;2022-07-03T09:15:07;32.13;35.89
67868;SHT31;54672;46.096;14.470;2022-07-03T09:17:33;32.59;34.78
67868;SHT31;54672;46.096;14.470;2022-07-03T09:19:59;32.69;35.04
67868;SHT31;54672;46.096;14.470;2022-07-03T09:22:28;32.86;35.32
67868;SHT31;54672;46.096;14.470;2022-07-03T09:24:55;32.28;35.44
67868;SHT31;54672;46.096;14.470;2022-07-03T09:27:27;32.14;36.57
67868;SHT31;54672;46.096;14.470;2022-07-03T09:32:30;31.53;37.72
67868;SHT31;54672;46.096;14.470;2022-07-03T09:35:12;31.62;37.48
67868;SHT31;54672;46.096;14.470;2022-07-03T09:37:37;30.10;40.33
67868;SHT31;54672;46.096;14.470;2022-07-03T09:40:03;31.70;38.16
67868;SHT31;54672;46.096;14.470;2022-07-03T09:42:29;31.77;37.58
67868;SHT31;54672;46.096;14.470;2022-07-03T09:44:54;30.98;38.90
67868;SHT31;54672;46.096;14.470;2022-07-03T09:47:20;30.40;40.48
67868;SHT31;54672;46.096;14.470;2022-07-03T09:49:47;30.00;41.70
67868;SHT31;54672;46.096;14.470;2022-07-03T09:55:00;29.55;42.58
67868;SHT31;54672;46.096;14.470;2022-07-03T09:57:29;29.75;42.49
67868;SHT31;54672;46.096;14.470;2022-07-03T10:00:08;29.52;42.58
67868;SHT31;54672;46.096;14.470;2022-07-03T10:02:34;29.97;41.51
67868;SHT31;54672;46.096;14.470;2022-07-03T10:05:11;29.89;42.55
67868;SHT31;54672;46.096;14.470;2022-07-03T10:07:57;29.76;42.35
67868;SHT31;54672;46.096;14.470;2022-07-03T10:10:23;29.38;43.23
67868;SHT31;54672;46.096;14.470;2022-07-03T10:12:49;28.86;44.26
67868;SHT31;54672;46.096;14.470;2022-07-03T10:15:16;29.24;44.06
67868;SHT31;54672;46.096;14.470;2022-07-03T10:17:41;29.69;44.14
67868;SHT31;54672;46.096;14.470;2022-07-03T10:20:07;29.77;42.51
67868;SHT31;54672;46.096;14.470;2022-07-03T10:22:33;29.77;43.18
67868;SHT31;54672;46.096;14.470;2022-07-03T10:25:02;30.14;42.57
67868;SHT31;54672;46.096;14.470;2022-07-03T10:27:28;30.44;42.31
67868;SHT31;54672;46.096;14.470;2022-07-03T10:29:54;30.79;41.13
67868;SHT31;54672;46.096;14.470;2022-07-03T10:32:19;30.76;40.82
67868;SHT31;54672;46.096;14.470;2022-07-03T10:34:45;30.35;41.54
67868;SHT31;54672;46.096;14.470;2022-07-03T10:37:10;30.18;42.01
67868;SHT31;54672;46.096;14.470;2022-07-03T10:42:05;29.85;42.38
67868;SHT31;54672;46.096;14.470;2022-07-03T10:45:13;29.82;42.92
67868;SHT31;54672;46.096;14.470;2022-07-03T10:47:39;30.33;41.69
67868;SHT31;54672;46.096;14.470;2022-07-03T10:50:08;30.27;41.96
67868;SHT31;54672;46.096;14.470;2022-07-03T10:52:34;30.30;41.76
67868;SHT31;54672;46.096;14.470;2022-07-03T10:54:59;30.74;40.95
67868;SHT31;54672;46.096;14.470;2022-07-03T10:57:26;30.89;40.61
67868;SHT31;54672;46.096;14.470;2022-07-03T11:08:11;31.22;40.16
67868;SHT31;54672;46.096;14.470;2022-07-03T11:18:14;31.91;38.66
67868;SHT31;54672;46.096;14.470;2022-07-03T11:23:19;31.47;39.68
67868;SHT31;54672;46.096;14.470;2022-07-03T11:25:49;31.32;40.07
67868;SHT31;54672;46.096;14.470;2022-07-03T11:36:10;31.25;40.05
67868;SHT31;54672;46.096;14.470;2022-07-03T11:38:36;31.23;39.85
67868;SHT31;54672;46.096;14.470;2022-07-03T11:41:02;31.02;40.92
67868;SHT31;54672;46.096;14.470;2022-07-03T11:43:30;31.34;40.59
67868;SHT31;54672;46.096;14.470;2022-07-03T11:45:55;31.69;40.26
67868;SHT31;54672;46.096;14.470;2022-07-03T11:48:24;31.95;39.59
67868;SHT31;54672;46.096;14.470;2022-07-03T11:50:51;32.32;39.54
67868;SHT31;54672;46.096;14.470;2022-07-03T11:58:13;32.49;37.87
67868;SHT31;54672;46.096;14.470;2022-07-03T12:00:39;32.31;38.34
67868;SHT31;54672;46.096;14.470;2022-07-03T12:03:04;32.05;38.93
67868;SHT31;54672;46.096;14.470;2022-07-03T12:05:29;32.01;39.14
67868;SHT31;54672;46.096;14.470;2022-07-03T12:08:04;31.87;38.51
67868;SHT31;54672;46.096;14.470;2022-07-03T12:10:39;31.81;39.55
67868;SHT31;54672;46.096;14.470;2022-07-03T12:13:17;31.69;39.84
67868;SHT31;54672;46.096;14.470;2022-07-03T12:15:42;31.60;39.44
67868;SHT31;54672;46.096;14.470;2022-07-03T12:18:08;31.49;40.15
67868;SHT31;54672;46.096;14.470;2022-07-03T12:20:33;31.47;40.31
67868;SHT31;54672;46.096;14.470;2022-07-03T12:22:58;31.69;39.81
67868;SHT31;54672;46.096;14.470;2022-07-03T12:25:25;31.49;40.42
67868;SHT31;54672;46.096;14.470;2022-07-03T12:27:54;30.85;41.78
67868;SHT31;54672;46.096;14.470;2022-07-03T12:30:20;31.06;41.70
67868;SHT31;54672;46.096;14.470;2022-07-03T12:32:47;31.74;39.18
67868;SHT31;54672;46.096;14.470;2022-07-03T12:35:13;31.83;38.60
67868;SHT31;54672;46.096;14.470;2022-07-03T12:37:41;31.60;39.42
67868;SHT31;54672;46.096;14.470;2022-07-03T12:40:10;31.84;39.33
67868;SHT31;54672;46.096;14.470;2022-07-03T12:42:48;31.93;39.36
67868;SHT31;54672;46.096;14.470;2022-07-03T12:45:14;31.80;39.42
67868;SHT31;54672;46.096;14.470;2022-07-03T12:47:40;31.87;39.37
67868;SHT31;54672;46.096;14.470;2022-07-03T12:50:06;31.98;39.05
67868;SHT31;54672;46.096;14.470;2022-07-03T12:52:33;32.24;38.70
67868;SHT31;54672;46.096;14.470;2022-07-03T12:54:59;32.53;38.19
67868;SHT31;54672;46.096;14.470;2022-07-03T12:57:25;32.65;37.62
67868;SHT31;54672;46.096;14.470;2022-07-03T13:00:13;32.84;37.15
67868;SHT31;54672;46.096;14.470;2022-07-03T13:02:42;32.98;36.72
67868;SHT31;54672;46.096;14.470;2022-07-03T13:05:23;33.07;36.71
67868;SHT31;54672;46.096;14.470;2022-07-03T13:07:50;32.87;36.58
67868;SHT31;54672;46.096;14.470;2022-07-03T13:10:15;32.84;36.98
67868;SHT31;54672;46.096;14.470;2022-07-03T13:12:45;32.84;36.69
67868;SHT31;54672;46.096;14.470;2022-07-03T13:15:10;32.51;37.24
67868;SHT31;54672;46.096;14.470;2022-07-03T13:20:20;32.46;36.72
67868;SHT31;54672;46.096;14.470;2022-07-03T13:22:52;32.29;37.06
67868;SHT31;54672;46.096;14.470;2022-07-03T13:25:18;32.49;36.92
67868;SHT31;54672;46.096;14.470;2022-07-03T13:27:43;32.55;36.12
67868;SHT31;54672;46.096;14.470;2022-07-03T13:30:13;32.61;36.05
67868;SHT31;54672;46.096;14.470;2022-07-03T13:32:38;32.72;36.70
67868;SHT31;54672;46.096;14.470;2022-07-03T13:35:04;32.72;35.96
67868;SHT31;54672;46.096;14.470;2022-07-03T13:37:30;32.96;35.88
67868;SHT31;54672;46.096;14.470;2022-07-03T13:39:55;33.10;35.87
67868;SHT31;54672;46.096;14.470;2022-07-03T13:42:20;33.04;36.95
67868;SHT31;54672;46.096;14.470;2022-07-03T13:44:46;33.10;36.49
67868;SHT31;54672;46.096;14.470;2022-07-03T13:47:11;33.31;36.21
67868;SHT31;54672;46.096;14.470;2022-07-03T13:49:36;33.24;36.23
67868;SHT31;54672;46.096;14.470;2022-07-03T13:52:02;33.09;35.92
67868;SHT31;54672;46.096;14.470;2022-07-03T13:54:27;33.07;35.78
67868;SHT31;54672;46.096;14.470;2022-07-03T13:56:53;33.06;36.41
67868;SHT31;54672;46.096;14.470;2022-07-03T13:59:18;33.02;36.82
67868;SHT31;54672;46.096;14.470;2022-07-03T14:01:43;33.12;36.08
67868;SHT31;54672;46.096;14.470;2022-07-03T14:04:09;33.23;36.37
67868;SHT31;54672;46.096;14.470;2022-07-03T14:06:34;33.23;36.41
67868;SHT31;54672;46.096;14.470;2022-07-03T14:09:00;33.04;36.72
67868;SHT31;54672;46.096;14.470;2022-07-03T14:11:25;33.07;37.18
67868;SHT31;54672;46.096;14.470;2022-07-03T14:13:51;33.24;37.81
67868;SHT31;54672;46.096;14.470;2022-07-03T14:16:16;33.34;36.23
67868;SHT31;54672;46.096;14.470;2022-07-03T14:18:42;33.35;36.82
67868;SHT31;54672;46.096;14.470;2022-07-03T14:21:07;33.35;35.98
67868;SHT31;54672;46.096;14.470;2022-07-03T14:23:33;33.43;35.37
67868;SHT31;54672;46.096;14.470;2022-07-03T14:25:58;33.14;35.02
67868;SHT31;54672;46.096;14.470;2022-07-03T14:28:24;32.87;35.57
67868;SHT31;54672;46.096;14.470;2022-07-03T14:31:07;32.86;35.44
67868;SHT31;54672;46.096;14.470;2022-07-03T14:33:52;32.84;35.62
67868;SHT31;54672;46.096;14.470;2022-07-03T14:36:17;32.76;36.01
67868;SHT31;54672;46.096;14.470;2022-07-03T14:38:43;32.83;35.65
67868;SHT31;54672;46.096;14.470;2022-07-03T14:41:08;33.00;35.22
67868;SHT31;54672;46.096;14.470;2022-07-03T14:43:33;32.83;36.30
67868;SHT31;54672;46.096;14.470;2022-07-03T14:45:59;32.89;36.51
67868;SHT31;54672;46.096;14.470;2022-07-03T14:48:24;32.71;36.01
67868;SHT31;54672;46.096;14.470;2022-07-03T14:50:52;32.63;36.43
67868;SHT31;54672;46.096;14.470;2022-07-03T14:53:18;32.63;36.54
67868;SHT31;54672;46.096;14.470;2022-07-03T14:55:43;32.56;36.82
67868;SHT31;54672;46.096;14.470;2022-07-03T15:00:53;32.53;36.80
67868;SHT31;54672;46.096;14.470;2022-07-03T15:03:28;32.75;37.10
67868;SHT31;54672;46.096;14.470;2022-07-03T15:05:54;32.89;36.68
67868;SHT31;54672;46.096;14.470;2022-07-03T15:10:54;32.61;36.77
67868;SHT31;54672;46.096;14.470;2022-07-03T15:13:20;32.49;37.25
67868;SHT31;54672;46.096;14.470;2022-07-03T15:15:47;32.55;37.74
67868;SHT31;54672;46.096;14.470;2022-07-03T15:18:12;32.62;36.76
67868;SHT31;54672;46.096;14.470;2022-07-03T15:20:38;32.53;37.17
67868;SHT31;54672;46.096;14.470;2022-07-03T15:23:04;32.58;37.36
67868;SHT31;54672;46.096;14.470;2022-07-03T15:25:31;32.51;37.46
67868;SHT31;54672;46.096;14.470;2022-07-03T15:27:57;32.45;37.45
67868;SHT31;54672;46.096;14.470;2022-07-03T15:30:23;32.46;37.60
67868;SHT31;54672;46.096;14.470;2022-07-03T15:32:49;32.53;37.13
67868;SHT31;54672;46.096;14.470;2022-07-03T15:35:15;32.32;38.89
67868;SHT31;54672;46.096;14.470;2022-07-03T15:52:56;32.25;39.76
67868;SHT31;54672;46.096;14.470;2022-07-03T15:55:22;32.21;40.18
67868;SHT31;54672;46.096;14.470;2022-07-03T15:57:58;32.22;40.05
67868;SHT31;54672;46.096;14.470;2022-07-03T16:00:26;32.04;40.27
67868;SHT31;54672;46.096;14.470;2022-07-03T16:03:31;31.98;40.39
67868;SHT31;54672;46.096;14.470;2022-07-03T16:05:47;32.11;40.20
67868;SHT31;54672;46.096;14.470;2022-07-03T16:08:14;32.07;39.67
67868;SHT31;54672;46.096;14.470;2022-07-03T16:10:40;32.01;40.10
67868;SHT31;54672;46.096;14.470;2022-07-03T16:13:06;32.04;38.93
67868;SHT31;54672;46.096;14.470;2022-07-03T16:15:34;32.00;39.52
67868;SHT31;54672;46.096;14.470;2022-07-03T16:17:59;31.95;39.96
67868;SHT31;54672;46.096;14.470;2022-07-03T16:20:26;31.97;40.58
67868;SHT31;54672;46.096;14.470;2022-07-03T16:22:55;31.88;41.52
67868;SHT31;54672;46.096;14.470;2022-07-03T16:25:21;31.84;40.94
67868;SHT31;54672;46.096;14.470;2022-07-03T16:27:48;31.88;40.23
67868;SHT31;54672;46.096;14.470;2022-07-03T16:30:13;31.78;39.78
67868;SHT31;54672;46.096;14.470;2022-07-03T16:32:40;31.70;40.17
67868;SHT31;54672;46.096;14.470;2022-07-03T16:38:07;31.76;41.63
67868;SHT31;54672;46.096;14.470;2022-07-03T16:40:33;31.63;41.80
67868;SHT31;54672;46.096;14.470;2022-07-03T16:43:00;31.59;41.86
67868;SHT31;54672;46.096;14.470;2022-07-03T16:45:27;31.51;41.46
67868;SHT31;54672;46.096;14.470;2022-07-03T16:47:54;31.44;42.57
67868;SHT31;54672;46.096;14.470;2022-07-03T16:50:22;31.36;43.25
67868;SHT31;54672;46.096;14.470;2022-07-03T16:52:48;31.33;43.03